createdAt,value
2022-12-05T00:01:29.185Z,2.58
2022-12-05T00:03:59.401Z,2.58
2022-12-05T00:06:29.127Z,2.57
2022-12-05T00:08:58.582Z,2.57
2022-12-05T00:11:27.813Z,2.57
2022-12-05T00:14:00.569Z,2.57
2022-12-05T00:16:32.104Z,2.60
2022-12-05T00:19:00.617Z,2.60
2022-12-05T00:21:31.119Z,2.60
2022-12-05T00:24:00.245Z,2.57
2022-12-05T00:26:28.632Z,2.59
2022-12-05T00:28:58.467Z,2.61
2022-12-05T00:31:27.714Z,2.64
2022-12-05T00:33:56.187Z,2.63
2022-12-05T00:36:25.610Z,2.61
2022-12-05T00:38:54.039Z,2.62
2022-12-05T00:41:23.415Z,2.61
2022-12-05T00:43:51.671Z,2.59
2022-12-05T00:46:23.317Z,2.57
2022-12-05T00:48:51.587Z,2.62
2022-12-05T00:51:21.177Z,2.61
2022-12-05T00:53:49.616Z,2.61
2022-12-05T00:56:21.820Z,2.64
2022-12-05T00:58:50.356Z,2.64
2022-12-05T01:01:20.300Z,2.62
2022-12-05T01:03:52.605Z,2.61
2022-12-05T01:06:24.413Z,2.61
2022-12-05T01:08:53.687Z,2.64
2022-12-05T01:11:21.650Z,2.61
2022-12-05T01:13:49.581Z,2.61
2022-12-05T01:16:19.045Z,2.66
2022-12-05T01:18:49.681Z,2.66
2022-12-05T01:21:17.368Z,2.62
2022-12-05T01:23:45.150Z,2.63
2022-12-05T01:26:16.126Z,2.62
2022-12-05T01:28:44.120Z,2.65
2022-12-05T01:31:19.618Z,2.64
2022-12-05T01:33:50.696Z,2.62
2022-12-05T01:36:19.161Z,2.65
2022-12-05T01:38:47.137Z,2.67
2022-12-05T01:41:18.566Z,2.70
2022-12-05T01:43:57.942Z,2.67
2022-12-05T01:46:26.662Z,2.67
2022-12-05T01:49:01.046Z,2.67
2022-12-05T01:51:28.907Z,2.67
2022-12-05T01:53:56.611Z,2.69
2022-12-05T01:56:24.170Z,2.70
2022-12-05T01:58:53.562Z,2.67
2022-12-05T02:01:21.789Z,2.67
2022-12-05T02:03:52.692Z,2.68
2022-12-05T02:06:46.445Z,2.67
2022-12-05T02:09:14.747Z,2.68
2022-12-05T02:11:53.383Z,2.69
2022-12-05T02:14:30.582Z,2.70
2022-12-05T02:17:05.779Z,2.68
2022-12-05T02:19:53.835Z,2.71
2022-12-05T02:22:59.563Z,2.71
2022-12-05T02:26:16.561Z,2.73
2022-12-05T02:29:03.397Z,2.74
2022-12-05T02:31:38.966Z,2.73
2022-12-05T02:34:17.085Z,2.74
2022-12-05T02:36:50.920Z,2.75
2022-12-05T02:39:25.566Z,2.75
2022-12-05T02:41:59.599Z,2.76
2022-12-05T02:44:35.648Z,2.76
2022-12-05T02:47:08.634Z,2.81
2022-12-05T02:49:39.644Z,2.77
2022-12-05T02:52:11.210Z,2.77
2022-12-05T02:54:42.538Z,2.79
2022-12-05T02:57:14.306Z,2.78
2022-12-05T02:59:42.583Z,2.77
2022-12-05T03:02:24.297Z,2.76
2022-12-05T03:04:52.304Z,2.76
2022-12-05T03:07:27.582Z,2.78
2022-12-05T03:10:25.957Z,2.77
2022-12-05T03:12:58.912Z,2.81
2022-12-05T03:15:57.412Z,2.79
2022-12-05T03:18:31.458Z,2.78
2022-12-05T03:21:04.476Z,2.78
2022-12-05T03:23:35.564Z,2.79
2022-12-05T03:26:12.071Z,2.81
2022-12-05T03:28:51.013Z,2.81
2022-12-05T03:31:26.772Z,2.82
2022-12-05T03:34:01.585Z,2.83
2022-12-05T03:36:40.643Z,2.81
2022-12-05T03:39:19.638Z,2.83
2022-12-05T03:41:58.548Z,2.82
2022-12-05T03:44:34.130Z,2.82
2022-12-05T03:47:07.430Z,2.82
2022-12-05T03:49:41.268Z,2.83
2022-12-05T03:52:13.581Z,2.84
2022-12-05T03:54:46.305Z,2.86
2022-12-05T03:57:19.663Z,2.86
2022-12-05T03:59:53.446Z,2.84
2022-12-05T04:02:27.159Z,2.87
2022-12-05T04:04:59.492Z,2.85
2022-12-05T04:07:30.803Z,2.85
2022-12-05T04:10:03.593Z,2.85
2022-12-05T04:12:34.474Z,2.84
2022-12-05T04:15:06.804Z,2.84
2022-12-05T04:17:40.899Z,2.84
2022-12-05T04:20:32.385Z,2.84
2022-12-05T04:23:01.457Z,2.84
2022-12-05T04:25:35.000Z,2.85
2022-12-05T04:28:22.087Z,2.85
2022-12-05T04:30:54.713Z,2.84
2022-12-05T04:33:30.678Z,2.81
2022-12-05T04:36:08.550Z,2.82
2022-12-05T04:38:43.170Z,2.82
2022-12-05T04:41:17.206Z,2.83
2022-12-05T04:43:48.356Z,2.81
2022-12-05T04:46:19.613Z,2.80
2022-12-05T04:48:54.011Z,2.81
2022-12-05T04:51:26.861Z,2.80
2022-12-05T04:54:00.027Z,2.78
2022-12-05T04:56:30.864Z,2.80
2022-12-05T04:58:58.658Z,2.81
2022-12-05T05:01:31.433Z,2.82
2022-12-05T05:04:06.680Z,2.82
2022-12-05T05:06:39.497Z,2.83
2022-12-05T05:09:06.982Z,2.83
2022-12-05T05:11:36.665Z,2.85
2022-12-05T05:14:05.712Z,2.86
2022-12-05T05:16:36.073Z,2.86
2022-12-05T05:19:04.662Z,2.86
2022-12-05T05:21:35.510Z,2.87
2022-12-05T05:24:06.578Z,2.87
2022-12-05T05:26:41.591Z,2.88
2022-12-05T05:29:10.671Z,2.89
2022-12-05T05:31:39.676Z,2.91
2022-12-05T05:34:09.620Z,2.91
2022-12-05T05:36:37.880Z,2.91
2022-12-05T05:39:07.631Z,2.93
2022-12-05T05:41:37.671Z,2.94
2022-12-05T05:44:06.607Z,2.94
2022-12-05T05:46:36.323Z,2.95
2022-12-05T05:49:06.664Z,2.95
2022-12-05T05:51:35.107Z,2.97
2022-12-05T05:54:02.696Z,2.97
2022-12-05T05:56:31.720Z,2.96
2022-12-05T05:59:01.700Z,2.98
2022-12-05T06:01:32.589Z,2.97
2022-12-05T06:04:00.460Z,2.98
2022-12-05T06:06:31.967Z,2.95
2022-12-05T06:08:59.677Z,2.97
2022-12-05T06:11:29.578Z,2.98
2022-12-05T06:14:01.987Z,2.98
2022-12-05T06:16:31.289Z,2.97
2022-12-05T06:18:59.354Z,2.98
2022-12-05T06:21:27.768Z,2.99
2022-12-05T06:23:55.954Z,2.98
2022-12-05T06:26:24.338Z,3.00
2022-12-05T06:28:51.949Z,3.01
2022-12-05T06:31:28.509Z,3.01
2022-12-05T06:33:56.167Z,3.01
2022-12-05T06:36:25.057Z,3.02
2022-12-05T06:38:52.581Z,3.03
2022-12-05T06:41:21.854Z,3.02
2022-12-05T06:43:49.646Z,3.03
2022-12-05T06:46:18.110Z,3.03
2022-12-05T06:49:12.651Z,3.04
2022-12-05T06:51:40.244Z,3.05
2022-12-05T06:54:07.891Z,3.04
2022-12-05T06:57:01.560Z,3.04
2022-12-05T06:59:31.631Z,3.04
2022-12-05T07:01:58.699Z,3.05
2022-12-05T07:04:27.760Z,3.04
2022-12-05T07:06:56.603Z,3.04
2022-12-05T07:09:46.561Z,3.04
2022-12-05T07:12:17.313Z,3.03
2022-12-05T07:14:48.532Z,3.04
2022-12-05T07:17:44.556Z,3.04
2022-12-05T07:20:17.648Z,3.04
2022-12-05T07:22:46.460Z,3.04
2022-12-05T07:28:07.571Z,3.03
2022-12-05T07:30:36.566Z,3.03
2022-12-05T07:33:06.001Z,3.02
2022-12-05T07:35:34.890Z,3.02
2022-12-05T07:38:03.184Z,3.02
2022-12-05T07:40:31.580Z,2.99
2022-12-05T07:43:00.054Z,3.01
2022-12-05T07:45:28.792Z,2.99
2022-12-05T07:47:58.633Z,3.00
2022-12-05T07:50:27.638Z,2.99
2022-12-05T07:52:56.780Z,2.97
2022-12-05T07:55:24.567Z,2.97
2022-12-05T07:57:52.219Z,2.96
2022-12-05T08:00:45.521Z,2.96
2022-12-05T08:03:15.633Z,2.95
2022-12-05T08:05:44.228Z,2.95
2022-12-05T08:08:13.395Z,2.94
2022-12-05T08:10:41.579Z,2.94
2022-12-05T08:13:09.210Z,2.93
2022-12-05T08:15:37.386Z,2.94
2022-12-05T08:18:05.768Z,2.92
2022-12-05T08:21:02.200Z,2.91
2022-12-05T08:23:32.399Z,2.92
2022-12-05T08:26:03.917Z,2.91
2022-12-05T08:28:32.661Z,2.93
2022-12-05T08:31:05.132Z,2.92
2022-12-05T08:33:33.177Z,2.91
2022-12-05T08:36:03.520Z,2.92
2022-12-05T08:38:33.177Z,2.92
2022-12-05T08:41:01.762Z,2.91
2022-12-05T08:43:31.554Z,2.92
2022-12-05T08:46:01.713Z,2.91
2022-12-05T08:48:31.429Z,2.90
2022-12-05T08:50:59.977Z,2.90
2022-12-05T08:53:28.556Z,2.89
2022-12-05T08:56:00.842Z,2.89
2022-12-05T08:58:30.059Z,2.90
2022-12-05T09:01:09.637Z,2.90
2022-12-05T09:03:37.616Z,2.89
2022-12-05T09:06:07.248Z,2.89
2022-12-05T09:08:34.807Z,2.90
2022-12-05T09:11:07.678Z,2.91
2022-12-05T09:13:36.797Z,2.90
2022-12-05T09:16:09.155Z,2.90
2022-12-05T09:18:37.784Z,2.89
2022-12-05T09:21:09.325Z,2.89
2022-12-05T09:23:38.608Z,2.86
2022-12-05T09:26:12.123Z,2.84
2022-12-05T09:28:40.568Z,2.82
2022-12-05T09:31:10.298Z,2.79
2022-12-05T09:33:38.875Z,2.78
2022-12-05T09:36:08.732Z,2.76
2022-12-05T09:38:37.139Z,2.76
2022-12-05T09:41:17.070Z,2.75
2022-12-05T09:43:51.826Z,2.73
2022-12-05T09:46:35.507Z,2.72
2022-12-05T09:49:06.617Z,2.71
2022-12-05T09:51:49.669Z,2.68
2022-12-05T09:54:23.566Z,2.66
2022-12-05T09:56:54.015Z,2.64
2022-12-05T09:59:22.696Z,2.63
2022-12-05T10:01:58.774Z,2.62
2022-12-05T10:05:00.419Z,2.60
2022-12-05T10:07:35.922Z,2.61
2022-12-05T10:10:21.626Z,2.59
2022-12-05T10:13:09.627Z,2.56
2022-12-05T10:15:46.646Z,2.55
2022-12-05T10:18:27.870Z,2.52
2022-12-05T10:21:02.434Z,2.49
2022-12-05T10:26:29.986Z,2.43
2022-12-05T10:29:08.849Z,2.41
2022-12-05T10:31:40.686Z,2.38
2022-12-05T10:34:39.358Z,2.36
2022-12-05T10:37:12.462Z,2.34
2022-12-05T10:39:40.115Z,2.30
2022-12-05T10:42:13.348Z,2.26
2022-12-05T10:44:45.649Z,2.25
2022-12-05T10:47:14.164Z,2.23
2022-12-05T10:49:42.059Z,2.22
2022-12-05T10:52:13.296Z,2.21
2022-12-05T10:54:47.573Z,2.19
2022-12-05T10:57:24.107Z,2.18
2022-12-05T10:59:53.395Z,2.14
2022-12-05T11:02:25.856Z,2.13
2022-12-05T11:04:54.470Z,2.08
2022-12-05T11:07:30.382Z,2.06
2022-12-05T11:10:00.587Z,2.01
2022-12-05T11:12:30.030Z,1.99
2022-12-05T11:15:02.872Z,1.97
2022-12-05T11:17:34.391Z,1.95
2022-12-05T11:20:02.563Z,1.93
2022-12-05T11:22:33.424Z,1.91
2022-12-05T11:25:01.220Z,1.90
2022-12-05T11:27:31.772Z,1.88
2022-12-05T11:30:03.653Z,1.85
2022-12-05T11:32:32.383Z,1.82
2022-12-05T11:35:09.934Z,1.80
2022-12-05T11:40:41.358Z,1.76
2022-12-05T11:43:31.063Z,1.73
2022-12-05T11:46:15.723Z,1.71
2022-12-05T11:49:01.571Z,1.70
2022-12-05T11:51:39.294Z,1.68
2022-12-05T11:55:04.385Z,1.67
2022-12-05T11:57:42.629Z,1.65
2022-12-05T12:00:26.742Z,1.65
2022-12-05T12:03:20.725Z,1.63
2022-12-05T12:06:01.567Z,1.62
2022-12-05T12:08:31.546Z,1.62
2022-12-05T12:11:10.849Z,1.62
2022-12-05T12:14:01.659Z,1.59
2022-12-05T12:16:40.725Z,1.58
2022-12-05T12:19:27.752Z,1.56
2022-12-05T12:22:08.315Z,1.56
2022-12-05T12:25:01.487Z,1.54
2022-12-05T12:27:42.012Z,1.54
2022-12-05T12:30:16.683Z,1.52
2022-12-05T12:33:02.656Z,1.52
2022-12-05T12:35:32.980Z,1.52
2022-12-05T12:38:26.488Z,1.51
2022-12-05T12:40:58.014Z,1.51
2022-12-05T12:43:58.856Z,1.49
2022-12-05T12:46:37.670Z,1.48
2022-12-05T12:49:43.664Z,1.46
2022-12-05T12:52:18.750Z,1.46
2022-12-05T12:55:05.078Z,1.45
2022-12-05T12:57:47.643Z,1.44
2022-12-05T13:00:24.739Z,1.43
2022-12-05T13:02:58.014Z,1.41
2022-12-05T13:05:34.644Z,1.41
2022-12-05T13:08:12.442Z,1.41
2022-12-05T13:10:44.538Z,1.40
2022-12-05T13:13:17.158Z,1.40
2022-12-05T13:15:48.792Z,1.39
2022-12-05T13:18:19.036Z,1.38
2022-12-05T13:20:49.267Z,1.38
2022-12-05T13:23:22.162Z,1.38
2022-12-05T13:25:50.303Z,1.38
2022-12-05T13:28:26.838Z,1.38
2022-12-05T13:31:02.737Z,1.37
2022-12-05T13:33:34.775Z,1.37
2022-12-05T13:36:30.155Z,1.37
2022-12-05T13:39:21.103Z,1.36
2022-12-05T13:42:09.560Z,1.37
2022-12-05T13:45:10.276Z,1.36
2022-12-05T13:47:52.132Z,1.36
2022-12-05T13:50:29.587Z,1.36
2022-12-05T13:53:02.452Z,1.36
2022-12-05T13:55:36.427Z,1.36
2022-12-05T13:58:25.194Z,1.35
2022-12-05T14:01:36.185Z,1.36
2022-12-05T14:04:48.016Z,1.35
2022-12-05T14:07:42.997Z,1.35
2022-12-05T14:10:14.575Z,1.37
2022-12-05T14:12:52.458Z,1.36
2022-12-05T14:15:29.218Z,1.34
2022-12-05T14:18:03.164Z,1.36
2022-12-05T14:20:44.733Z,1.35
2022-12-05T14:23:20.603Z,1.32
2022-12-05T14:26:17.927Z,1.34
2022-12-05T14:29:02.431Z,1.33
2022-12-05T14:31:42.852Z,1.33
2022-12-05T14:34:24.732Z,1.32
2022-12-05T14:36:58.792Z,1.31
2022-12-05T14:39:34.965Z,1.31
2022-12-05T14:42:08.189Z,1.31
2022-12-05T14:44:36.123Z,1.33
2022-12-05T14:47:07.733Z,1.31
2022-12-05T14:49:53.668Z,1.30
2022-12-05T14:52:23.582Z,1.31
2022-12-05T14:54:53.638Z,1.31
2022-12-05T14:57:22.909Z,1.30
2022-12-05T14:59:53.642Z,1.30
2022-12-05T15:02:27.539Z,1.30
2022-12-05T15:05:04.656Z,1.30
2022-12-05T15:07:36.991Z,1.29
2022-12-05T15:10:07.503Z,1.30
2022-12-05T15:12:42.734Z,1.30
2022-12-05T15:15:17.251Z,1.29
2022-12-05T15:17:48.567Z,1.30
2022-12-05T15:20:24.202Z,1.28
2022-12-05T15:22:55.572Z,1.28
2022-12-05T15:25:29.428Z,1.27
2022-12-05T15:28:02.612Z,1.25
2022-12-05T15:30:32.152Z,1.24
2022-12-05T15:33:00.790Z,1.25
2022-12-05T15:35:33.576Z,1.23
2022-12-05T15:38:09.140Z,1.22
2022-12-05T15:40:38.316Z,1.21
2022-12-05T15:43:28.793Z,1.20
2022-12-05T15:46:10.701Z,1.19
2022-12-05T15:48:38.325Z,1.18
2022-12-05T15:51:07.531Z,1.16
2022-12-05T15:53:38.147Z,1.15
2022-12-05T15:56:14.573Z,1.15
2022-12-05T15:58:48.360Z,1.15
2022-12-05T16:01:19.770Z,1.16
2022-12-05T16:03:51.672Z,1.14
2022-12-05T16:06:25.011Z,1.11
2022-12-05T16:08:54.602Z,1.13
2022-12-05T16:11:22.551Z,1.13
2022-12-05T16:13:53.605Z,1.12
2022-12-05T16:16:25.759Z,1.11
2022-12-05T16:18:57.576Z,1.11
2022-12-05T16:21:38.981Z,1.09
2022-12-05T16:24:35.572Z,1.08
2022-12-05T16:27:07.040Z,1.06
2022-12-05T16:29:36.902Z,1.06
2022-12-05T16:32:14.840Z,1.08
2022-12-05T16:34:45.384Z,1.07
2022-12-05T16:37:25.880Z,1.07
2022-12-05T16:39:55.851Z,1.07
2022-12-05T16:42:25.639Z,1.07
2022-12-05T16:45:01.846Z,1.08
2022-12-05T16:47:59.604Z,1.08
2022-12-05T16:50:34.711Z,1.08
2022-12-05T16:53:15.303Z,1.09
2022-12-05T16:55:45.100Z,1.09
2022-12-05T16:58:18.590Z,1.09
2022-12-05T17:00:46.392Z,1.09
2022-12-05T17:03:34.081Z,1.09
2022-12-05T17:06:02.798Z,1.10
2022-12-05T17:08:31.859Z,1.09
2022-12-05T17:11:01.767Z,1.10
2022-12-05T17:13:31.493Z,1.09
2022-12-05T17:15:59.463Z,1.10
2022-12-05T17:18:31.849Z,1.11
2022-12-05T17:21:02.869Z,1.11
2022-12-05T17:23:31.861Z,1.12
2022-12-05T17:26:00.568Z,1.11
2022-12-05T17:28:28.206Z,1.11
2022-12-05T17:30:56.090Z,1.11
2022-12-05T17:33:24.154Z,1.10
2022-12-05T17:35:52.582Z,1.13
2022-12-05T17:38:21.913Z,1.12
2022-12-05T17:40:52.585Z,1.12
2022-12-05T17:43:24.975Z,1.11
2022-12-05T17:45:54.574Z,1.11
2022-12-05T17:48:22.502Z,1.11
2022-12-05T17:50:52.214Z,1.11
2022-12-05T17:53:22.604Z,1.13
2022-12-05T17:55:52.254Z,1.12
2022-12-05T17:58:19.853Z,1.12
2022-12-05T18:00:48.708Z,1.12
2022-12-05T18:03:18.999Z,1.12
2022-12-05T18:05:47.342Z,1.12
2022-12-05T18:08:16.337Z,1.12
2022-12-05T18:10:46.106Z,1.12
2022-12-05T18:13:16.050Z,1.12
2022-12-05T18:15:43.895Z,1.12
2022-12-05T18:18:15.568Z,1.11
2022-12-05T18:20:44.492Z,1.12
2022-12-05T18:23:13.228Z,1.13
2022-12-05T18:25:41.518Z,1.13
2022-12-05T18:28:09.377Z,1.13
2022-12-05T18:30:38.325Z,1.12
2022-12-05T18:33:06.009Z,1.12
2022-12-05T18:35:43.080Z,1.12
2022-12-05T18:38:12.405Z,1.12
2022-12-05T18:40:40.158Z,1.13
2022-12-05T18:43:07.903Z,1.13
2022-12-05T18:45:36.213Z,1.12
2022-12-05T18:50:53.627Z,1.12
2022-12-05T18:53:21.748Z,1.12
2022-12-05T18:56:13.578Z,1.12
2022-12-05T18:58:38.648Z,1.13
2022-12-05T19:01:09.269Z,1.11
2022-12-05T19:03:38.997Z,1.12
2022-12-05T19:06:13.402Z,1.13
2022-12-05T19:08:41.605Z,1.13
2022-12-05T19:11:09.316Z,1.13
2022-12-05T19:13:37.285Z,1.13
2022-12-05T19:16:05.575Z,1.14
2022-12-05T19:18:33.320Z,1.13
2022-12-05T19:21:02.511Z,1.14
2022-12-05T19:23:33.871Z,1.13
2022-12-05T19:26:02.157Z,1.14
2022-12-05T19:28:30.009Z,1.15
2022-12-05T19:31:01.833Z,1.14
2022-12-05T19:33:34.762Z,1.15
2022-12-05T19:36:06.109Z,1.14
2022-12-05T19:38:37.699Z,1.14
2022-12-05T19:41:07.182Z,1.14
2022-12-05T19:43:36.617Z,1.14
2022-12-05T19:46:05.372Z,1.14
2022-12-05T19:48:33.413Z,1.14
2022-12-05T19:51:02.042Z,1.15
2022-12-05T19:53:33.436Z,1.15
2022-12-05T19:56:02.288Z,1.16
2022-12-05T19:58:32.657Z,1.15
2022-12-05T20:01:07.868Z,1.16
2022-12-05T20:03:35.807Z,1.16
2022-12-05T20:06:04.799Z,1.16
2022-12-05T20:08:34.138Z,1.17
2022-12-05T20:11:05.584Z,1.17
2022-12-05T20:13:49.944Z,1.17
2022-12-05T20:16:22.784Z,1.17
2022-12-05T20:18:51.124Z,1.15
2022-12-05T20:21:21.896Z,1.14
2022-12-05T20:23:51.686Z,1.14
2022-12-05T20:26:21.564Z,1.14
2022-12-05T20:28:49.560Z,1.14
2022-12-05T20:31:19.657Z,1.14
2022-12-05T20:33:48.746Z,1.15
2022-12-05T20:36:18.421Z,1.14
2022-12-05T20:38:47.384Z,1.13
2022-12-05T20:41:18.770Z,1.14
2022-12-05T20:43:48.639Z,1.14
2022-12-05T20:46:20.509Z,1.13
2022-12-05T20:48:50.253Z,1.11
2022-12-05T20:51:20.449Z,1.12
2022-12-05T20:53:48.269Z,1.12
2022-12-05T20:56:19.000Z,1.13
2022-12-05T20:58:49.040Z,1.14
2022-12-05T21:01:17.925Z,1.15
2022-12-05T21:03:46.908Z,1.15
2022-12-05T21:06:16.331Z,1.16
2022-12-05T21:08:43.933Z,1.16
2022-12-05T21:11:13.725Z,1.16
2022-12-05T21:13:44.645Z,1.16
2022-12-05T21:16:16.934Z,1.16
2022-12-05T21:18:45.289Z,1.15
2022-12-05T21:21:15.471Z,1.17
2022-12-05T21:23:43.568Z,1.16
2022-12-05T21:26:13.830Z,1.18
2022-12-05T21:28:42.442Z,1.19
2022-12-05T21:31:14.728Z,1.18
2022-12-05T21:33:46.863Z,1.19
2022-12-05T21:36:14.658Z,1.19
2022-12-05T21:38:43.473Z,1.20
2022-12-05T21:41:11.896Z,1.19
2022-12-05T21:43:39.500Z,1.20
2022-12-05T21:46:07.654Z,1.20
2022-12-05T21:48:38.629Z,1.21
2022-12-05T21:51:07.591Z,1.21
2022-12-05T21:53:36.662Z,1.22
2022-12-05T21:56:08.412Z,1.21
2022-12-05T21:58:41.841Z,1.21
2022-12-05T22:01:12.135Z,1.21
2022-12-05T22:03:41.085Z,1.21
2022-12-05T22:06:10.828Z,1.22
2022-12-05T22:08:39.718Z,1.22
2022-12-05T22:11:08.449Z,1.21
2022-12-05T22:13:36.452Z,1.22
2022-12-05T22:16:05.695Z,1.21
2022-12-05T22:18:35.885Z,1.21
2022-12-05T22:21:07.106Z,1.22
2022-12-05T22:23:38.072Z,1.20
2022-12-05T22:26:08.580Z,1.21
2022-12-05T22:28:36.805Z,1.21
2022-12-05T22:31:09.845Z,1.20
2022-12-05T22:33:38.668Z,1.21
2022-12-05T22:36:10.162Z,1.19
2022-12-05T22:38:39.679Z,1.20
2022-12-05T22:41:13.991Z,1.20
2022-12-05T22:43:42.759Z,1.20
2022-12-05T22:46:13.526Z,1.21
2022-12-05T22:48:41.287Z,1.20
2022-12-05T22:51:11.689Z,1.23
2022-12-05T22:53:41.734Z,1.22
2022-12-05T22:56:12.031Z,1.20
2022-12-05T22:58:40.480Z,1.20
2022-12-05T23:01:12.698Z,1.20
2022-12-05T23:03:41.263Z,1.19
2022-12-05T23:06:12.236Z,1.19
2022-12-05T23:08:40.617Z,1.20
2022-12-05T23:11:09.590Z,1.19
2022-12-05T23:13:39.166Z,1.19
2022-12-05T23:16:10.699Z,1.19
2022-12-05T23:18:47.497Z,1.18
2022-12-05T23:21:19.761Z,1.19
2022-12-05T23:23:48.703Z,1.20
2022-12-05T23:26:19.874Z,1.20
2022-12-05T23:28:47.690Z,1.19
2022-12-05T23:31:17.781Z,1.20
2022-12-05T23:33:50.853Z,1.21
2022-12-05T23:36:21.082Z,1.22
2022-12-05T23:38:50.571Z,1.22
2022-12-05T23:41:22.069Z,1.21
2022-12-05T23:43:52.590Z,1.22
2022-12-05T23:46:22.820Z,1.23
2022-12-05T23:48:51.596Z,1.23
2022-12-05T23:51:23.845Z,1.23
2022-12-05T23:53:55.718Z,1.23
2022-12-05T23:56:25.594Z,1.23
2022-12-05T23:58:55.712Z,1.24
